Time;durP1;ratioP1;P1;durP2;ratioP2;P2;SDS_P1;SDS_P2;PMS_P1;PMS_P2;Temp;Humidity;BMP_temperature;BMP_pressure;BME280_temperature;BME280_humidity;BME280_pressure;Samples;Min_cycle;Max_cycle;Signal;HPM_P1;HPM_P2
2023/08/31 00:01:00;;;;;;;0.00;0.00;;;;;;;15.07;72.06;100884.25;5044331;28;20625;-75
2023/08/31 00:03:26;;;;;;;0.00;0.00;;;;;;;15.08;72.50;100885.97;5049477;28;20159;-77
2023/08/31 00:05:52;;;;;;;0.03;0.03;;;;;;;15.12;72.37;100893.81;5048629;28;20095;-77
2023/08/31 00:08:18;;;;;;;0.08;0.08;;;;;;;15.12;72.96;100893.81;5057863;28;20393;-76
2023/08/31 00:10:45;;;;;;;0.10;0.10;;;;;;;15.19;72.80;100890.00;5071343;28;20035;-76
2023/08/31 00:13:12;;;;;;;0.10;0.10;;;;;;;15.24;72.64;100886.25;5062814;28;20104;-78
2023/08/31 00:15:38;;;;;;;0.10;0.10;;;;;;;15.26;72.54;100889.75;5051884;28;20036;-76
2023/08/31 00:18:04;;;;;;;0.10;0.10;;;;;;;15.25;73.20;100885.34;5053701;28;20036;-76
2023/08/31 00:20:31;;;;;;;0.10;0.10;;;;;;;15.35;72.98;100884.03;5058971;28;20024;-76
2023/08/31 00:22:58;;;;;;;0.10;0.10;;;;;;;15.41;73.01;100882.94;5061657;28;20026;-77
2023/08/31 00:25:24;;;;;;;0.10;0.10;;;;;;;15.44;72.82;100881.03;5068013;28;20033;-77
2023/08/31 00:27:52;;;;;;;0.10;0.10;;;;;;;15.42;73.30;100885.53;5062960;28;20030;-77
2023/08/31 00:30:18;;;;;;;0.10;0.10;;;;;;;15.45;73.29;100890.78;5064015;28;20055;-76
2023/08/31 00:32:47;;;;;;;0.10;0.10;;;;;;;15.44;72.92;100883.69;5055627;28;20436;-76
2023/08/31 00:35:13;;;;;;;0.10;0.10;;;;;;;15.50;73.04;100880.78;5063347;28;20025;-76
2023/08/31 00:37:39;;;;;;;0.10;0.10;;;;;;;15.51;73.38;100882.53;5055116;28;20512;-76
2023/08/31 00:40:07;;;;;;;1.40;1.30;;;;;;;15.56;73.44;100873.44;5056841;28;20044;-77
2023/08/31 00:42:34;;;;;;;0.55;0.55;;;;;;;15.61;73.26;100874.13;5060920;28;20019;-77
2023/08/31 00:45:00;;;;;;;0.10;0.10;;;;;;;15.62;72.97;100886.56;5054750;28;20079;-75
2023/08/31 00:47:27;;;;;;;0.10;0.10;;;;;;;15.59;72.62;100892.00;5056550;28;20077;-77
2023/08/31 00:49:53;;;;;;;0.05;0.05;;;;;;;15.60;72.64;100889.28;5054392;28;20025;-78
2023/08/31 00:52:20;;;;;;;0.10;0.10;;;;;;;15.61;72.46;100887.47;5054718;28;20037;-77
2023/08/31 00:54:47;;;;;;;0.10;0.10;;;;;;;15.63;71.90;100891.81;5054965;28;20111;-76
2023/08/31 00:57:13;;;;;;;0.10;0.10;;;;;;;15.65;71.90;100892.66;5051754;28;20441;-77
2023/08/31 00:59:39;;;;;;;0.10;0.10;;;;;;;15.63;71.52;100893.63;5050248;28;20116;-76
2023/08/31 01:02:13;;;;;;;0.10;0.10;;;;;;;15.66;71.70;100888.16;5051602;28;20039;-77
2023/08/31 01:05:13;;;;;;;0.10;0.10;;;;;;;15.70;71.30;100884.41;5052028;28;20534;-77
2023/08/31 01:13:25;;;;;;;0.10;0.10;;;;;;;15.51;72.02;100890.53;5116888;27;20582;-77
2023/08/31 01:15:56;;;;;;;0.10;0.10;;;;;;;15.54;71.08;100894.88;5122117;28;20114;-77
2023/08/31 01:18:25;;;;;;;0.10;0.10;;;;;;;15.48;72.16;100890.63;5122226;28;20106;-77
2023/08/31 01:23:44;;;;;;;0.10;0.10;;;;;;;15.51;72.18;100892.31;5056591;28;20392;-77
2023/08/31 01:26:11;;;;;;;0.30;0.30;;;;;;;15.38;72.17;100883.94;5045325;28;20039;-77
2023/08/31 01:28:38;;;;;;;0.08;0.08;;;;;;;15.35;71.91;100879.59;5045292;28;20108;-77
2023/08/31 01:31:06;;;;;;;0.28;0.28;;;;;;;15.32;72.01;100886.84;5046008;28;20049;-77
2023/08/31 01:33:32;;;;;;;0.13;0.13;;;;;;;15.27;72.12;100888.81;5048687;28;20427;-76
2023/08/31 01:36:01;;;;;;;0.22;0.22;;;;;;;15.31;71.78;100890.44;5047876;28;20441;-77
2023/08/31 01:38:30;;;;;;;0.85;0.85;;;;;;;15.26;71.86;100889.75;5053703;28;20040;-76
2023/08/31 01:43:41;;;;;;;0.10;0.10;;;;;;;15.33;71.55;100897.47;5128723;27;20406;-77
2023/08/31 01:46:08;;;;;;;0.10;0.10;;;;;;;15.39;71.61;100909.72;5127910;28;20034;-76
2023/08/31 01:48:40;;;;;;;0.10;0.10;;;;;;;15.41;71.79;100920.31;5117971;28;20122;-76
2023/08/31 01:51:07;;;;;;;0.17;0.17;;;;;;;15.37;71.62;100928.44;5108165;28;20023;-76
2023/08/31 01:53:34;;;;;;;0.10;0.10;;;;;;;15.31;72.45;100914.47;5107960;28;20016;-76
2023/08/31 01:56:00;;;;;;;0.10;0.10;;;;;;;15.30;72.34;100910.94;5107157;28;20478;-77
2023/08/31 01:58:27;;;;;;;0.10;0.10;;;;;;;15.17;72.49;100894.50;5107455;28;20023;-77
2023/08/31 02:00:53;;;;;;;0.10;0.10;;;;;;;15.33;72.37;100899.28;5108644;28;20032;-77
2023/08/31 02:03:19;;;;;;;0.03;0.03;;;;;;;15.34;71.95;100893.00;5107963;28;20057;-77
2023/08/31 02:05:45;;;;;;;0.00;0.00;;;;;;;15.33;71.89;100896.59;5108274;28;20043;-77
2023/08/31 02:08:11;;;;;;;0.10;0.10;;;;;;;15.31;71.99;100898.44;5108031;28;20161;-77
2023/08/31 02:10:37;;;;;;;0.10;0.10;;;;;;;15.24;72.06;100892.50;5109398;28;20034;-78
2023/08/31 02:13:03;;;;;;;0.10;0.10;;;;;;;15.17;71.38;100889.16;5109626;28;20051;-77
2023/08/31 02:15:30;;;;;;;0.10;0.10;;;;;;;15.09;71.31;100893.06;5116271;28;20398;-76
2023/08/31 02:17:56;;;;;;;0.10;0.10;;;;;;;15.10;71.08;100889.47;5111126;28;20024;-77
2023/08/31 02:20:22;;;;;;;0.10;0.10;;;;;;;14.99;71.43;100888.09;5110015;28;20103;-77
2023/08/31 02:22:49;;;;;;;0.08;0.08;;;;;;;14.99;71.52;100889.88;5110054;28;20015;-77
2023/08/31 02:25:16;;;;;;;0.05;0.05;;;;;;;15.04;71.25;100890.56;5110376;28;20459;-78
2023/08/31 02:27:42;;;;;;;0.10;0.10;;;;;;;15.04;71.37;100893.22;5108818;28;20053;-77
2023/08/31 02:30:09;;;;;;;0.10;0.10;;;;;;;15.05;71.36;100892.31;5107860;28;20036;-76
2023/08/31 02:32:35;;;;;;;0.82;0.82;;;;;;;14.97;72.06;100886.41;5108411;28;20024;-77
2023/08/31 02:35:02;;;;;;;0.10;0.10;;;;;;;15.05;71.75;100892.31;5107406;28;20024;-77
2023/08/31 02:37:28;;;;;;;0.10;0.10;;;;;;;15.06;71.91;100885.19;5107617;28;20122;-77
2023/08/31 02:39:55;;;;;;;0.10;0.10;;;;;;;15.00;72.27;100876.50;5109658;28;20034;-77
2023/08/31 02:42:21;;;;;;;0.10;0.10;;;;;;;14.99;72.43;100877.41;5110563;28;20114;-77
2023/08/31 02:44:47;;;;;;;0.10;0.10;;;;;;;15.05;71.94;100889.63;5125685;28;20048;-77
2023/08/31 02:47:13;;;;;;;0.10;0.10;;;;;;;15.04;72.55;100890.56;5109660;28;20077;-77
2023/08/31 02:49:39;;;;;;;0.10;0.10;;;;;;;14.97;72.89;100894.41;5108791;28;20031;-77
2023/08/31 02:52:05;;;;;;;0.10;0.10;;;;;;;15.02;72.56;100887.09;5108499;28;20047;-77
2023/08/31 02:54:31;;;;;;;0.05;0.05;;;;;;;15.02;73.24;100882.63;5097032;28;20093;-77
2023/08/31 02:56:57;;;;;;;0.38;0.38;;;;;;;15.06;72.78;100893.19;5090763;28;20040;-77
2023/08/31 02:59:23;;;;;;;0.10;0.10;;;;;;;15.08;72.36;100891.31;5092815;28;20035;-77
2023/08/31 03:01:50;;;;;;;0.10;0.10;;;;;;;15.05;72.59;100889.63;5092855;28;20355;-77
2023/08/31 03:04:17;;;;;;;0.10;0.10;;;;;;;15.05;72.29;100886.97;5092365;28;20054;-77
2023/08/31 03:06:43;;;;;;;0.20;0.20;;;;;;;15.01;72.83;100891.53;5094052;28;20095;-77
2023/08/31 03:09:09;;;;;;;0.10;0.10;;;;;;;15.00;72.66;100878.28;5094994;28;20032;-77
2023/08/31 03:11:35;;;;;;;0.20;0.20;;;;;;;14.92;73.20;100867.91;5079654;28;20404;-77
2023/08/31 03:14:01;;;;;;;0.10;0.10;;;;;;;14.91;72.79;100871.47;5094900;28;20099;-77
2023/08/31 03:16:28;;;;;;;0.05;0.05;;;;;;;14.91;73.14;100868.81;5093721;28;20112;-77
2023/08/31 03:18:54;;;;;;;0.00;0.00;;;;;;;14.90;73.30;100871.56;5094189;28;20035;-77
2023/08/31 03:21:20;;;;;;;0.10;0.10;;;;;;;14.86;73.52;100879.66;5092425;28;20118;-77
2023/08/31 03:23:46;;;;;;;0.10;0.10;;;;;;;14.87;73.07;100886.72;5093397;28;20111;-77
2023/08/31 03:26:12;;;;;;;0.45;0.45;;;;;;;14.86;73.10;100887.66;5090688;28;20635;-77
2023/08/31 03:28:40;;;;;;;0.10;0.10;;;;;;;14.89;72.90;100881.34;5093255;28;20036;-77
2023/08/31 03:31:06;;;;;;;0.10;0.10;;;;;;;14.85;73.18;100891.28;5095994;28;20031;-77
2023/08/31 03:33:32;;;;;;;0.10;0.10;;;;;;;14.85;73.28;100880.59;5095101;28;20035;-76
2023/08/31 03:36:04;;;;;;;0.77;0.77;;;;;;;14.88;72.85;100885.81;5092816;28;20100;-77
2023/08/31 03:38:31;;;;;;;0.10;0.10;;;;;;;14.86;72.69;100881.47;5092338;28;20024;-76
2023/08/31 03:40:57;;;;;;;0.10;0.10;;;;;;;14.87;72.65;100884.06;5092153;28;20032;-77
2023/08/31 03:43:24;;;;;;;0.10;0.10;;;;;;;14.85;72.60;100880.59;5094992;28;20448;-77
2023/08/31 03:45:55;;;;;;;0.28;0.28;;;;;;;14.84;72.75;100886.88;5093410;28;20068;-77
2023/08/31 03:48:22;;;;;;;0.10;0.10;;;;;;;14.83;72.54;100882.44;5093291;28;20073;-77
2023/08/31 03:50:51;;;;;;;0.10;0.10;;;;;;;14.78;72.77;100889.75;5093237;28;20741;-77
2023/08/31 03:53:17;;;;;;;0.10;0.10;;;;;;;14.77;72.55;100890.69;5093672;28;20028;-77
2023/08/31 03:55:43;;;;;;;0.00;0.00;;;;;;;14.74;72.50;100887.25;5087167;28;20060;-76
2023/08/31 03:58:09;;;;;;;0.10;0.10;;;;;;;14.72;72.69;100888.16;5102215;28;20028;-76
2023/08/31 04:00:36;;;;;;;0.77;0.77;;;;;;;14.69;73.12;100887.41;5095093;28;20028;-76
2023/08/31 04:03:02;;;;;;;0.10;0.10;;;;;;;14.66;72.99;100892.88;5093024;28;20013;-77
2023/08/31 04:05:32;;;;;;;0.30;0.30;;;;;;;14.68;72.49;100888.38;5091167;28;20028;-77
2023/08/31 04:07:58;;;;;;;0.10;0.10;;;;;;;14.64;72.52;100884.91;5092533;28;20021;-78
2023/08/31 04:10:25;;;;;;;0.10;0.10;;;;;;;14.61;72.57;100894.81;5093901;28;20051;-77
2023/08/31 04:12:52;;;;;;;0.17;0.17;;;;;;;14.55;72.85;100888.78;5095697;28;20028;-77
2023/08/31 04:15:18;;;;;;;0.10;0.10;;;;;;;14.55;72.50;100883.44;5095657;28;20452;-77
2023/08/31 04:17:44;;;;;;;0.10;0.10;;;;;;;14.52;72.56;100891.53;5094696;28;20039;-77
2023/08/31 04:20:12;;;;;;;0.05;0.05;;;;;;;14.50;72.58;100900.50;5095173;28;20027;-78
2023/08/31 04:22:38;;;;;;;0.20;0.20;;;;;;;14.49;72.34;100899.66;5094574;28;20385;-77
2023/08/31 04:25:04;;;;;;;0.10;0.10;;;;;;;14.50;72.49;100905.84;5091787;28;20039;-77
2023/08/31 04:27:31;;;;;;;0.10;0.10;;;;;;;14.51;72.19;100904.91;5091460;28;20065;-77
2023/08/31 04:29:59;;;;;;;0.10;0.10;;;;;;;14.51;72.26;100913.78;5091821;28;20111;-77
2023/08/31 04:32:25;;;;;;;0.08;0.08;;;;;;;14.51;72.41;100900.44;5092084;28;20019;-77
2023/08/31 04:34:52;;;;;;;0.10;0.10;;;;;;;14.51;72.20;100905.78;5092662;28;20024;-76
2023/08/31 04:37:18;;;;;;;0.10;0.10;;;;;;;14.51;72.10;100918.25;5093057;28;20032;-77
2023/08/31 04:39:44;;;;;;;0.10;0.10;;;;;;;14.51;72.02;100921.78;5091784;28;20101;-76
2023/08/31 04:42:10;;;;;;;0.10;0.10;;;;;;;14.52;71.97;100926.19;5092125;28;20024;-77
2023/08/31 04:44:36;;;;;;;0.10;0.10;;;;;;;14.52;72.02;100922.66;5092498;28;20051;-77
2023/08/31 04:47:02;;;;;;;0.10;0.10;;;;;;;14.59;71.96;100932.16;5091126;28;20032;-78
2023/08/31 04:49:28;;;;;;;0.10;0.10;;;;;;;14.63;71.69;100932.94;5089627;28;20054;-76
2023/08/31 04:51:56;;;;;;;0.10;0.10;;;;;;;14.62;71.55;100926.75;5082822;28;20024;-77
2023/08/31 04:54:22;;;;;;;0.10;0.10;;;;;;;14.67;71.63;100937.28;5081439;28;20123;-77
2023/08/31 04:56:48;;;;;;;0.10;0.10;;;;;;;14.66;71.23;100933.72;5090313;28;20032;-77
2023/08/31 04:59:15;;;;;;;0.10;0.10;;;;;;;14.64;71.36;100934.69;5090732;28;20415;-76
2023/08/31 05:01:41;;;;;;;0.10;0.10;;;;;;;14.68;71.07;100939.03;5082270;28;20050;-77
2023/08/31 05:04:07;;;;;;;0.10;0.10;;;;;;;14.74;71.28;100940.59;5084481;28;20059;-77
2023/08/31 05:06:33;;;;;;;0.10;0.10;;;;;;;14.77;71.10;100946.69;5086024;28;20139;-76
2023/08/31 05:08:59;;;;;;;0.15;0.15;;;;;;;14.77;70.72;100953.84;5088931;28;20031;-76
2023/08/31 05:11:26;;;;;;;0.10;0.10;;;;;;;14.85;70.81;100955.28;5089557;28;20020;-76
2023/08/31 05:13:52;;;;;;;1.05;1.02;;;;;;;14.85;70.52;100965.97;5090620;28;20119;-76
2023/08/31 05:16:18;;;;;;;0.10;0.10;;;;;;;14.93;70.73;100963.00;5089349;28;20036;-77
2023/08/31 05:18:44;;;;;;;0.10;0.10;;;;;;;14.98;70.51;100966.38;5090512;28;20023;-76
2023/08/31 05:21:10;;;;;;;0.05;0.05;;;;;;;15.03;70.57;100971.56;5089039;28;20535;-76
2023/08/31 05:23:37;;;;;;;0.10;0.10;;;;;;;15.07;70.45;100981.19;5088357;28;20031;-76
2023/08/31 05:26:03;;;;;;;0.10;0.10;;;;;;;15.13;70.50;100980.97;5089265;28;20032;-75
2023/08/31 05:28:29;;;;;;;0.10;0.10;;;;;;;15.15;70.57;100980.91;5088949;28;20039;-77
2023/08/31 05:30:58;;;;;;;0.10;0.10;;;;;;;15.19;70.39;100993.22;5089511;28;20032;-77
2023/08/31 05:33:28;;;;;;;0.10;0.10;;;;;;;15.22;70.51;100989.56;5089302;28;20481;-76
2023/08/31 05:35:55;;;;;;;0.25;0.25;;;;;;;15.23;70.68;100980.59;5086833;28;20028;-76
2023/08/31 05:38:21;;;;;;;0.10;0.10;;;;;;;15.28;70.53;100984.00;5089455;28;20032;-76
2023/08/31 05:40:47;;;;;;;0.10;0.10;;;;;;;15.34;71.00;100989.09;5087199;28;20024;-76
2023/08/31 05:43:13;;;;;;;0.10;0.10;;;;;;;15.41;70.87;100987.06;5087313;28;20052;-76
2023/08/31 05:45:39;;;;;;;0.10;0.10;;;;;;;15.46;71.04;100985.94;5085621;28;20032;-76
2023/08/31 05:48:07;;;;;;;0.10;0.10;;;;;;;15.51;71.04;100992.00;5087226;28;20035;-77
2023/08/31 05:50:33;;;;;;;0.10;0.10;;;;;;;15.57;71.42;100990.03;5089831;28;20401;-77
2023/08/31 05:52:59;;;;;;;0.10;0.10;;;;;;;15.63;71.23;101005.81;5090765;28;20090;-77
2023/08/31 05:55:25;;;;;;;0.10;0.10;;;;;;;15.66;71.38;100995.88;5084982;28;20043;-76
2023/08/31 05:57:52;;;;;;;0.10;0.10;;;;;;;15.73;71.66;100996.50;5088012;28;20036;-76
2023/08/31 06:00:18;;;;;;;0.10;0.10;;;;;;;15.76;71.57;101004.38;5088044;28;20393;-76
2023/08/31 06:02:44;;;;;;;0.10;0.10;;;;;;;15.78;71.76;100997.19;5086332;28;20031;-76
2023/08/31 06:05:12;;;;;;;0.10;0.10;;;;;;;15.81;71.69;100999.75;5088605;28;20071;-76
2023/08/31 06:07:39;;;;;;;0.10;0.10;;;;;;;15.84;71.93;101005.00;5085177;28;20036;-76
2023/08/31 06:10:06;;;;;;;0.10;0.10;;;;;;;15.84;71.77;101002.31;5086760;28;20101;-76
2023/08/31 06:12:32;;;;;;;0.10;0.10;;;;;;;15.88;71.84;101000.41;5084028;28;20485;-75
2023/08/31 06:15:00;;;;;;;0.10;0.10;;;;;;;15.90;71.75;100997.66;5090094;28;20017;-74
2023/08/31 06:17:26;;;;;;;0.10;0.10;;;;;;;15.90;71.70;100995.88;5083269;28;20024;-76
2023/08/31 06:19:52;;;;;;;0.15;0.15;;;;;;;15.90;71.89;101003.00;5091332;28;20028;-76
2023/08/31 06:22:18;;;;;;;0.10;0.10;;;;;;;15.89;71.54;101006.59;5081211;28;20129;-75
2023/08/31 06:24:45;;;;;;;0.10;0.10;;;;;;;15.86;71.51;101007.59;5086138;28;20032;-77
2023/08/31 06:27:12;;;;;;;0.00;0.00;;;;;;;15.85;71.48;101004.06;5079661;28;20032;-76
2023/08/31 06:29:38;;;;;;;0.35;0.35;;;;;;;15.88;71.57;101004.88;5091409;28;20036;-76
2023/08/31 06:32:05;;;;;;;0.10;0.10;;;;;;;15.87;71.48;101008.50;5083156;28;20051;-77
2023/08/31 06:34:31;;;;;;;0.10;0.10;;;;;;;15.88;71.48;101015.56;5085635;28;20686;-79
2023/08/31 06:36:58;;;;;;;0.10;0.10;;;;;;;15.88;70.96;101010.25;5084279;28;20097;-77
2023/08/31 06:39:24;;;;;;;0.10;0.10;;;;;;;15.89;70.85;101011.94;5085320;28;20024;-76
2023/08/31 06:41:50;;;;;;;0.10;0.10;;;;;;;15.87;70.74;101021.84;5086009;28;20489;-76
2023/08/31 06:44:16;;;;;;;0.25;0.25;;;;;;;15.87;70.79;101019.19;5076075;28;20036;-79
2023/08/31 06:46:43;;;;;;;0.30;0.30;;;;;;;15.87;71.17;101029.88;5094250;28;20038;-78
2023/08/31 06:49:10;;;;;;;0.10;0.10;;;;;;;15.91;71.07;101032.34;5098770;28;20027;-77
2023/08/31 06:51:37;;;;;;;0.10;0.10;;;;;;;15.95;70.96;101033.97;5096057;28;20034;-78
2023/08/31 06:54:06;;;;;;;0.30;0.30;;;;;;;16.00;70.96;101029.31;5091250;28;20024;-77
2023/08/31 06:56:33;;;;;;;0.10;0.10;;;;;;;16.09;70.91;101029.88;5093530;28;20055;-76
2023/08/31 06:58:59;;;;;;;0.10;0.10;;;;;;;16.14;70.78;101035.91;5084145;28;20556;-77
2023/08/31 07:01:27;;;;;;;0.10;0.10;;;;;;;16.18;71.04;101029.50;5085315;28;20026;-78
2023/08/31 07:03:53;;;;;;;0.10;0.10;;;;;;;16.22;71.06;101035.59;5087501;28;20063;-77
2023/08/31 07:06:19;;;;;;;0.10;0.10;;;;;;;16.24;71.14;101039.09;5089720;28;20056;-76
2023/08/31 07:08:47;;;;;;;0.08;0.08;;;;;;;16.26;71.03;101040.78;5085735;28;20691;-75
2023/08/31 07:11:13;;;;;;;0.10;0.10;;;;;;;16.30;70.95;101050.41;5080553;28;20038;-75
2023/08/31 07:13:39;;;;;;;0.10;0.10;;;;;;;16.33;71.19;101038.69;5077991;28;20059;-75
2023/08/31 07:16:06;;;;;;;0.10;0.10;;;;;;;16.37;71.40;101044.81;5075605;28;20028;-74
2023/08/31 07:18:32;;;;;;;0.10;0.10;;;;;;;16.38;71.14;101050.06;5074612;28;20029;-75
2023/08/31 07:20:58;;;;;;;0.20;0.20;;;;;;;16.41;71.27;101055.31;5073922;28;20032;-75
2023/08/31 07:23:24;;;;;;;0.10;0.10;;;;;;;16.42;71.29;101046.34;5089183;28;20656;-75
2023/08/31 07:25:50;;;;;;;0.00;0.00;;;;;;;16.48;71.32;101051.44;5083545;28;20035;-74
2023/08/31 07:28:17;;;;;;;0.10;0.10;;;;;;;16.57;71.22;101052.00;5075676;28;20050;-75
2023/08/31 07:30:43;;;;;;;0.10;0.10;;;;;;;16.62;71.36;101050.88;5072811;28;20493;-75
2023/08/31 07:33:10;;;;;;;0.10;0.10;;;;;;;16.67;71.30;101047.97;5073254;28;20036;-75
2023/08/31 07:35:36;;;;;;;0.10;0.10;;;;;;;16.69;70.74;101046.13;5090026;28;20035;-75
2023/08/31 07:38:02;;;;;;;0.10;0.10;;;;;;;16.85;70.53;101045.47;5092305;28;20047;-74
2023/08/31 07:40:28;;;;;;;0.10;0.10;;;;;;;16.93;69.87;101059.41;5091296;28;20052;-75
2023/08/31 07:42:54;;;;;;;0.10;0.10;;;;;;;16.92;67.78;101047.84;5092011;28;20031;-75
2023/08/31 07:45:20;;;;;;;0.10;0.10;;;;;;;17.04;67.40;101065.19;5090012;28;20495;-75
2023/08/31 07:47:46;;;;;;;0.10;0.10;;;;;;;17.16;67.32;101065.56;5092406;28;20040;-75
2023/08/31 07:50:14;;;;;;;0.20;0.20;;;;;;;17.21;66.76;101058.19;5091983;28;20043;-74
2023/08/31 07:52:40;;;;;;;0.10;0.10;;;;;;;17.19;65.08;101065.44;5089950;28;20047;-75
2023/08/31 07:55:06;;;;;;;0.30;0.30;;;;;;;17.31;65.64;101056.88;5082438;28;20047;-75
2023/08/31 07:57:34;;;;;;;0.10;0.10;;;;;;;17.41;64.68;101057.34;5080719;28;20031;-75
2023/08/31 08:00:00;;;;;;;0.10;0.10;;;;;;;17.46;63.68;101058.84;5082469;28;20115;-75
2023/08/31 08:02:26;;;;;;;0.10;0.10;;;;;;;17.40;61.58;101074.34;5091164;28;20166;-75
2023/08/31 08:04:52;;;;;;;0.10;0.10;;;;;;;17.49;60.99;101062.34;5090751;28;20501;-75
2023/08/31 08:07:18;;;;;;;0.30;0.30;;;;;;;17.58;61.30;101069.94;5088627;28;20447;-75
2023/08/31 08:09:44;;;;;;;0.10;0.10;;;;;;;17.68;61.84;101068.56;5090939;28;20512;-75
2023/08/31 08:12:10;;;;;;;0.10;0.10;;;;;;;17.71;60.69;101079.16;5082991;28;20020;-75
2023/08/31 08:14:36;;;;;;;0.00;0.00;;;;;;;17.78;60.19;101077.06;5074128;28;20038;-74
2023/08/31 08:17:03;;;;;;;0.10;0.10;;;;;;;17.81;59.90;101073.34;5083759;28;20046;-75
2023/08/31 08:19:29;;;;;;;0.10;0.10;;;;;;;17.91;59.90;101077.38;5089476;28;20024;-74
2023/08/31 08:21:55;;;;;;;0.08;0.08;;;;;;;18.04;59.95;101075.84;5088429;28;20148;-75
2023/08/31 08:24:21;;;;;;;0.10;0.10;;;;;;;18.19;60.48;101084.13;5083405;28;20571;-75
2023/08/31 08:26:47;;;;;;;0.10;0.10;;;;;;;18.20;58.30;101085.88;5083676;28;20032;-75
2023/08/31 08:29:13;;;;;;;0.00;0.00;;;;;;;18.23;57.29;101085.69;5079995;28;20456;-75
2023/08/31 08:31:40;;;;;;;0.25;0.25;;;;;;;18.23;55.00;101088.38;5082556;28;20081;-75
2023/08/31 08:34:06;;;;;;;0.10;0.10;;;;;;;18.37;55.82;101087.75;5076972;28;20275;-74
2023/08/31 08:36:32;;;;;;;0.20;0.20;;;;;;;18.49;55.38;101091.63;5087385;28;20020;-75
2023/08/31 08:38:58;;;;;;;0.10;0.10;;;;;;;18.55;54.79;101091.31;5079707;28;20529;-75
2023/08/31 08:41:27;;;;;;;0.00;0.00;;;;;;;18.49;53.55;101115.75;5084464;28;20028;-75
2023/08/31 08:43:56;;;;;;;0.10;0.10;;;;;;;18.60;52.28;101094.63;5090010;28;20028;-75
2023/08/31 08:46:23;;;;;;;0.10;0.10;;;;;;;18.57;52.47;101097.47;5081589;28;20029;-75
2023/08/31 08:48:50;;;;;;;0.10;0.10;;;;;;;18.66;53.49;101098.84;5079813;28;20028;-75
2023/08/31 08:51:16;;;;;;;0.10;0.10;;;;;;;18.86;53.86;101095.16;5081762;28;20037;-75
2023/08/31 08:53:45;;;;;;;0.10;0.10;;;;;;;18.84;52.89;101092.53;5075122;28;20021;-75
2023/08/31 08:56:11;;;;;;;0.08;0.08;;;;;;;18.97;52.91;101111.59;5075474;28;20043;-75
2023/08/31 08:58:37;;;;;;;0.10;0.10;;;;;;;19.03;52.32;101103.25;5073028;28;20093;-75
2023/08/31 09:01:07;;;;;;;0.10;0.10;;;;;;;19.19;52.30;101105.13;5086355;28;20032;-75
2023/08/31 09:03:34;;;;;;;0.00;0.00;;;;;;;19.07;51.80;101112.00;5079495;28;20489;-75
2023/08/31 09:06:03;;;;;;;0.10;0.10;;;;;;;19.23;52.27;101109.41;5086551;28;20800;-75
2023/08/31 09:08:29;;;;;;;0.10;0.10;;;;;;;19.31;52.44;101112.53;5084010;28;20515;-75
2023/08/31 09:10:58;;;;;;;0.10;0.10;;;;;;;19.37;51.63;101116.72;5079549;28;20041;-75
2023/08/31 09:13:28;;;;;;;0.10;0.10;;;;;;;19.35;50.41;101107.88;5081567;28;20338;-75
2023/08/31 09:15:55;;;;;;;0.00;0.00;;;;;;;19.43;50.33;101121.78;5081679;28;20033;-76
2023/08/31 09:18:37;;;;;;;0.03;0.03;;;;;;;19.46;50.92;101110.84;5080154;28;20374;-75
2023/08/31 09:21:03;;;;;;;0.00;0.00;;;;;;;19.20;49.68;101120.28;5084538;28;20028;-75
2023/08/31 09:23:29;;;;;;;0.10;0.10;;;;;;;19.31;50.95;101117.91;5081763;28;20107;-75
2023/08/31 09:25:56;;;;;;;0.10;0.10;;;;;;;19.49;50.83;101115.19;5082729;28;20497;-75
2023/08/31 09:28:26;;;;;;;0.10;0.10;;;;;;;19.58;49.60;101120.09;5084434;28;20056;-75
2023/08/31 09:30:53;;;;;;;0.10;0.10;;;;;;;19.77;50.14;101116.41;5077890;28;20098;-75
2023/08/31 09:33:20;;;;;;;0.00;0.00;;;;;;;19.78;49.35;101118.16;5075652;28;20488;-75
2023/08/31 09:35:50;;;;;;;0.10;0.10;;;;;;;19.88;47.40;101116.72;5079208;28;20028;-75
2023/08/31 09:38:16;;;;;;;0.10;0.10;;;;;;;19.94;46.80;101124.47;5084745;28;20031;-74
2023/08/31 09:40:43;;;;;;;0.10;0.10;;;;;;;20.13;46.80;101120.75;5088291;28;20107;-75
2023/08/31 09:43:09;;;;;;;0.10;0.10;;;;;;;20.25;46.01;101117.38;5082228;28;20028;-76
2023/08/31 09:45:36;;;;;;;0.10;0.10;;;;;;;20.20;46.10;101124.84;5087129;28;20103;-76
2023/08/31 09:48:04;;;;;;;0.10;0.10;;;;;;;20.33;45.29;101120.47;5077579;28;20040;-77
2023/08/31 09:50:33;;;;;;;0.10;0.10;;;;;;;20.54;46.54;101125.59;5086593;28;20036;-79
2023/08/31 09:53:03;;;;;;;0.10;0.10;;;;;;;20.56;45.26;101123.72;5094428;28;20024;-75
2023/08/31 09:55:31;;;;;;;0.10;0.10;;;;;;;20.60;45.81;101124.38;5086680;28;20443;-78
2023/08/31 09:58:00;;;;;;;0.10;0.10;;;;;;;20.58;45.42;101124.47;5074128;28;20028;-77
2023/08/31 10:00:29;;;;;;;0.10;0.10;;;;;;;20.73;45.45;101129.97;5083017;28;20056;-76
2023/08/31 10:03:00;;;;;;;0.10;0.10;;;;;;;20.77;44.15;101128.81;5086783;28;20020;-75
2023/08/31 10:05:26;;;;;;;0.10;0.10;;;;;;;20.78;45.20;101134.09;5083348;28;20032;-77
2023/08/31 10:07:53;;;;;;;0.52;0.52;;;;;;;20.91;43.71;101123.50;5091967;28;20074;-76
2023/08/31 10:10:22;;;;;;;0.10;0.10;;;;;;;20.98;43.42;101126.69;5091476;28;20031;-76
2023/08/31 10:12:49;;;;;;;0.10;0.10;;;;;;;21.11;44.05;101129.50;5091605;28;20076;-76
2023/08/31 10:15:16;;;;;;;0.10;0.10;;;;;;;21.18;43.88;101125.47;5092482;28;20024;-76
2023/08/31 10:17:43;;;;;;;0.10;0.10;;;;;;;21.23;43.97;101120.69;5093620;28;20109;-76
2023/08/31 10:20:13;;;;;;;0.22;0.22;;;;;;;21.33;43.84;101129.97;5092746;28;20125;-76
2023/08/31 10:22:39;;;;;;;0.35;0.35;;;;;;;21.44;43.79;101123.03;5093221;28;20024;-75
2023/08/31 10:25:07;;;;;;;0.10;0.10;;;;;;;21.38;42.39;101131.50;5092601;28;20034;-76
2023/08/31 10:27:40;;;;;;;0.20;0.20;;;;;;;21.50;42.84;101133.44;5092460;28;20032;-77
2023/08/31 10:30:28;;;;;;;0.10;0.10;;;;;;;21.46;40.76;101127.38;5091952;28;20028;-76
2023/08/31 10:35:56;;;;;;;0.00;0.00;;;;;;;21.41;42.20;101132.19;5059356;28;20410;-77
2023/08/31 10:43:51;;;;;;;0.10;0.10;;;;;;;21.64;41.14;101120.00;5089499;28;20375;-77
2023/08/31 10:48:55;;;;;;;0.10;0.10;;;;;;;;;;5064464;27;20059;-77
2023/08/31 10:51:23;;;;;;;0.10;0.10;;;;;;;21.46;39.92;101126.50;5044365;28;20065;-77
2023/08/31 10:53:50;;;;;;;0.17;0.17;;;;;;;21.62;41.16;101124.63;5050253;28;20056;-76
2023/08/31 10:56:17;;;;;;;0.10;0.10;;;;;;;21.72;41.33;101126.75;5035913;28;20025;-76
2023/08/31 10:58:59;;;;;;;0.10;0.10;;;;;;;21.70;37.37;101142.16;5025096;28;20030;-77
2023/08/31 11:02:04;;;;;;;0.00;0.00;;;;;;;21.74;37.09;101138.31;5025108;28;20033;-77
2023/08/31 11:04:30;;;;;;;0.10;0.10;;;;;;;21.42;37.02;101138.44;5040413;28;20040;-77
2023/08/31 11:07:14;;;;;;;0.10;0.10;;;;;;;21.52;37.74;101142.31;5045481;28;20093;-77
2023/08/31 11:09:41;;;;;;;0.22;0.22;;;;;;;21.49;39.69;101135.25;5042092;28;20021;-77
2023/08/31 11:12:08;;;;;;;0.00;0.00;;;;;;;21.50;39.79;101137.00;5044267;28;20054;-78
2023/08/31 11:14:34;;;;;;;0.05;0.05;;;;;;;21.76;40.01;101128.31;5044747;28;20021;-75
2023/08/31 11:17:01;;;;;;;0.10;0.10;;;;;;;21.96;40.01;101141.38;5042497;28;20033;-76
2023/08/31 11:19:28;;;;;;;0.35;0.35;;;;;;;22.00;39.32;101116.91;5043923;28;20029;-77
2023/08/31 11:21:55;;;;;;;0.10;0.10;;;;;;;22.00;38.22;101138.50;5039652;28;20439;-76
2023/08/31 11:24:22;;;;;;;0.20;0.20;;;;;;;22.09;37.21;101128.00;5045711;28;20044;-76
2023/08/31 11:26:52;;;;;;;0.10;0.10;;;;;;;22.25;38.85;101132.38;5042658;28;20025;-77
2023/08/31 11:29:18;;;;;;;0.10;0.10;;;;;;;22.09;37.73;101132.50;5040241;28;20136;-77
2023/08/31 11:31:44;;;;;;;0.10;0.10;;;;;;;22.05;38.27;101129.13;5042287;27;21811;-76
2023/08/31 11:34:15;;;;;;;0.10;0.10;;;;;;;22.07;38.90;101131.72;5043623;28;20045;-76
2023/08/31 11:36:43;;;;;;;0.00;0.00;;;;;;;22.05;37.99;101130.97;5031968;28;20030;-77
2023/08/31 11:39:10;;;;;;;0.10;0.10;;;;;;;22.19;38.44;101127.38;5043577;27;20044;-77
2023/08/31 11:41:41;;;;;;;0.10;0.10;;;;;;;22.21;38.86;101133.56;5040794;28;20063;-74
2023/08/31 11:44:11;;;;;;;0.10;0.10;;;;;;;22.35;39.32;101127.25;5036472;27;20078;-75
2023/08/31 11:46:38;;;;;;;1.05;1.00;;;;;;;22.36;38.20;101129.00;5052996;28;20020;-76
2023/08/31 11:49:06;;;;;;;0.00;0.00;;;;;;;22.49;39.76;101123.69;5042987;28;20049;-76